sensor_id;sensor_type;location;lat;lon;timestamp;P1;durP1;ratioP1;P2;durP2;ratioP2
7719;SDS011;3902;49.474;8.616;2023-07-30T00:01:07;3.43;;;2.70;;
7719;SDS011;3902;49.474;8.616;2023-07-30T00:03:36;2.60;;;2.30;;
7719;SDS011;3902;49.474;8.616;2023-07-30T00:06:01;3.10;;;2.57;;
7719;SDS011;3902;49.474;8.616;2023-07-30T00:08:27;2.60;;;2.40;;
7719;SDS011;3902;49.474;8.616;2023-07-30T00:10:52;2.70;;;2.10;;
7719;SDS011;3902;49.474;8.616;2023-07-30T00:13:18;2.60;;;2.40;;
7719;SDS011;3902;49.474;8.616;2023-07-30T00:15:47;2.33;;;2.13;;
7719;SDS011;3902;49.474;8.616;2023-07-30T00:18:13;2.27;;;2.07;;
7719;SDS011;3902;49.474;8.616;2023-07-30T00:20:39;2.50;;;2.03;;
7719;SDS011;3902;49.474;8.616;2023-07-30T00:23:04;2.60;;;2.40;;
7719;SDS011;3902;49.474;8.616;2023-07-30T00:25:30;2.13;;;1.93;;
7719;SDS011;3902;49.474;8.616;2023-07-30T00:27:55;2.63;;;2.30;;
7719;SDS011;3902;49.474;8.616;2023-07-30T00:30:21;2.80;;;2.60;;
7719;SDS011;3902;49.474;8.616;2023-07-30T00:32:47;2.50;;;2.30;;
7719;SDS011;3902;49.474;8.616;2023-07-30T00:35:12;2.20;;;2.00;;
7719;SDS011;3902;49.474;8.616;2023-07-30T00:37:38;2.40;;;2.20;;
7719;SDS011;3902;49.474;8.616;2023-07-30T00:40:04;2.50;;;2.30;;
7719;SDS011;3902;49.474;8.616;2023-07-30T00:42:30;1.97;;;1.87;;
7719;SDS011;3902;49.474;8.616;2023-07-30T00:44:55;3.43;;;2.63;;
7719;SDS011;3902;49.474;8.616;2023-07-30T00:47:21;2.40;;;2.20;;
7719;SDS011;3902;49.474;8.616;2023-07-30T00:49:47;2.50;;;2.30;;
7719;SDS011;3902;49.474;8.616;2023-07-30T00:52:15;2.53;;;2.33;;
7719;SDS011;3902;49.474;8.616;2023-07-30T00:54:43;3.27;;;2.97;;
7719;SDS011;3902;49.474;8.616;2023-07-30T00:57:08;2.17;;;2.07;;
7719;SDS011;3902;49.474;8.616;2023-07-30T00:59:35;3.40;;;2.50;;
7719;SDS011;3902;49.474;8.616;2023-07-30T01:02:01;3.07;;;2.80;;
7719;SDS011;3902;49.474;8.616;2023-07-30T01:04:28;3.83;;;2.83;;
7719;SDS011;3902;49.474;8.616;2023-07-30T01:06:54;3.87;;;3.03;;
7719;SDS011;3902;49.474;8.616;2023-07-30T01:09:20;3.30;;;2.80;;
7719;SDS011;3902;49.474;8.616;2023-07-30T01:11:46;3.87;;;2.50;;
7719;SDS011;3902;49.474;8.616;2023-07-30T01:14:12;2.57;;;2.37;;
7719;SDS011;3902;49.474;8.616;2023-07-30T01:16:39;3.10;;;2.80;;
7719;SDS011;3902;49.474;8.616;2023-07-30T01:19:05;2.90;;;2.70;;
7719;SDS011;3902;49.474;8.616;2023-07-30T01:21:32;2.50;;;2.30;;
7719;SDS011;3902;49.474;8.616;2023-07-30T01:23:58;3.17;;;2.97;;
7719;SDS011;3902;49.474;8.616;2023-07-30T01:26:24;3.20;;;2.90;;
7719;SDS011;3902;49.474;8.616;2023-07-30T01:28:56;3.40;;;3.10;;
7719;SDS011;3902;49.474;8.616;2023-07-30T01:31:25;2.40;;;2.20;;
7719;SDS011;3902;49.474;8.616;2023-07-30T01:33:52;3.07;;;2.77;;
7719;SDS011;3902;49.474;8.616;2023-07-30T01:36:20;3.20;;;2.90;;
7719;SDS011;3902;49.474;8.616;2023-07-30T01:38:47;3.13;;;2.87;;
7719;SDS011;3902;49.474;8.616;2023-07-30T01:41:14;3.70;;;3.10;;
7719;SDS011;3902;49.474;8.616;2023-07-30T01:43:39;3.90;;;2.87;;
7719;SDS011;3902;49.474;8.616;2023-07-30T01:46:05;4.23;;;3.07;;
7719;SDS011;3902;49.474;8.616;2023-07-30T01:48:31;3.53;;;3.23;;
7719;SDS011;3902;49.474;8.616;2023-07-30T01:50:56;2.87;;;2.67;;
7719;SDS011;3902;49.474;8.616;2023-07-30T01:53:22;3.53;;;2.80;;
7719;SDS011;3902;49.474;8.616;2023-07-30T01:55:47;2.80;;;2.60;;
7719;SDS011;3902;49.474;8.616;2023-07-30T01:58:13;2.67;;;2.47;;
7719;SDS011;3902;49.474;8.616;2023-07-30T02:00:39;3.47;;;3.17;;
7719;SDS011;3902;49.474;8.616;2023-07-30T02:03:05;2.63;;;2.43;;
7719;SDS011;3902;49.474;8.616;2023-07-30T02:05:30;3.23;;;2.80;;
7719;SDS011;3902;49.474;8.616;2023-07-30T02:07:56;3.07;;;2.67;;
7719;SDS011;3902;49.474;8.616;2023-07-30T02:10:23;3.13;;;2.93;;
7719;SDS011;3902;49.474;8.616;2023-07-30T02:12:50;2.93;;;2.67;;
7719;SDS011;3902;49.474;8.616;2023-07-30T02:15:15;2.97;;;2.77;;
7719;SDS011;3902;49.474;8.616;2023-07-30T02:17:41;3.07;;;2.87;;
7719;SDS011;3902;49.474;8.616;2023-07-30T02:20:06;2.90;;;2.30;;
7719;SDS011;3902;49.474;8.616;2023-07-30T02:22:33;3.07;;;2.50;;
7719;SDS011;3902;49.474;8.616;2023-07-30T02:24:58;3.83;;;2.60;;
7719;SDS011;3902;49.474;8.616;2023-07-30T02:27:24;4.47;;;3.27;;
7719;SDS011;3902;49.474;8.616;2023-07-30T02:29:50;2.80;;;2.60;;
7719;SDS011;3902;49.474;8.616;2023-07-30T02:32:15;2.63;;;2.43;;
7719;SDS011;3902;49.474;8.616;2023-07-30T02:34:41;2.40;;;2.20;;
7719;SDS011;3902;49.474;8.616;2023-07-30T02:37:06;2.50;;;2.30;;
7719;SDS011;3902;49.474;8.616;2023-07-30T02:39:32;2.47;;;2.20;;
7719;SDS011;3902;49.474;8.616;2023-07-30T02:41:58;2.60;;;2.37;;
7719;SDS011;3902;49.474;8.616;2023-07-30T02:44:23;2.57;;;2.30;;
7719;SDS011;3902;49.474;8.616;2023-07-30T02:46:48;2.90;;;2.60;;
7719;SDS011;3902;49.474;8.616;2023-07-30T02:49:14;2.60;;;2.40;;
7719;SDS011;3902;49.474;8.616;2023-07-30T02:51:39;2.50;;;2.30;;
7719;SDS011;3902;49.474;8.616;2023-07-30T02:54:05;2.00;;;1.83;;
7719;SDS011;3902;49.474;8.616;2023-07-30T02:56:32;3.40;;;2.30;;
7719;SDS011;3902;49.474;8.616;2023-07-30T02:58:58;3.23;;;2.30;;
7719;SDS011;3902;49.474;8.616;2023-07-30T03:01:24;3.23;;;2.93;;
7719;SDS011;3902;49.474;8.616;2023-07-30T03:03:49;4.03;;;3.73;;
7719;SDS011;3902;49.474;8.616;2023-07-30T03:06:15;7.90;;;4.60;;
7719;SDS011;3902;49.474;8.616;2023-07-30T03:08:42;4.60;;;4.20;;
7719;SDS011;3902;49.474;8.616;2023-07-30T03:11:08;5.17;;;4.17;;
7719;SDS011;3902;49.474;8.616;2023-07-30T03:13:33;4.13;;;3.83;;
7719;SDS011;3902;49.474;8.616;2023-07-30T03:15:59;3.60;;;3.30;;
7719;SDS011;3902;49.474;8.616;2023-07-30T03:18:25;3.53;;;3.10;;
7719;SDS011;3902;49.474;8.616;2023-07-30T03:20:50;5.83;;;2.87;;
7719;SDS011;3902;49.474;8.616;2023-07-30T03:23:16;3.53;;;3.23;;
7719;SDS011;3902;49.474;8.616;2023-07-30T03:25:41;2.97;;;2.73;;
7719;SDS011;3902;49.474;8.616;2023-07-30T03:28:07;3.60;;;2.77;;
7719;SDS011;3902;49.474;8.616;2023-07-30T03:30:32;4.07;;;3.10;;
7719;SDS011;3902;49.474;8.616;2023-07-30T03:32:58;4.20;;;3.00;;
7719;SDS011;3902;49.474;8.616;2023-07-30T03:35:23;3.43;;;3.13;;
7719;SDS011;3902;49.474;8.616;2023-07-30T03:37:49;2.73;;;2.53;;
7719;SDS011;3902;49.474;8.616;2023-07-30T03:40:14;2.77;;;2.57;;
7719;SDS011;3902;49.474;8.616;2023-07-30T03:42:40;3.10;;;2.60;;
7719;SDS011;3902;49.474;8.616;2023-07-30T03:45:06;3.93;;;2.73;;
7719;SDS011;3902;49.474;8.616;2023-07-30T03:47:31;3.60;;;2.67;;
7719;SDS011;3902;49.474;8.616;2023-07-30T03:49:57;2.43;;;2.23;;
7719;SDS011;3902;49.474;8.616;2023-07-30T03:52:22;2.30;;;2.20;;
7719;SDS011;3902;49.474;8.616;2023-07-30T03:54:48;2.50;;;2.30;;
7719;SDS011;3902;49.474;8.616;2023-07-30T03:57:13;2.43;;;2.23;;
7719;SDS011;3902;49.474;8.616;2023-07-30T03:59:39;2.53;;;2.27;;
7719;SDS011;3902;49.474;8.616;2023-07-30T04:02:04;2.57;;;2.37;;
7719;SDS011;3902;49.474;8.616;2023-07-30T04:04:30;2.27;;;2.07;;
7719;SDS011;3902;49.474;8.616;2023-07-30T04:06:55;2.33;;;2.13;;
7719;SDS011;3902;49.474;8.616;2023-07-30T04:09:21;2.20;;;2.00;;
7719;SDS011;3902;49.474;8.616;2023-07-30T04:11:47;2.90;;;2.20;;
7719;SDS011;3902;49.474;8.616;2023-07-30T04:14:12;2.87;;;2.47;;
7719;SDS011;3902;49.474;8.616;2023-07-30T04:16:38;2.50;;;2.30;;
7719;SDS011;3902;49.474;8.616;2023-07-30T04:19:04;2.63;;;2.10;;
7719;SDS011;3902;49.474;8.616;2023-07-30T04:21:29;3.90;;;2.30;;
7719;SDS011;3902;49.474;8.616;2023-07-30T04:23:55;2.80;;;2.23;;
7719;SDS011;3902;49.474;8.616;2023-07-30T04:26:20;2.70;;;2.50;;
7719;SDS011;3902;49.474;8.616;2023-07-30T04:28:46;3.40;;;2.33;;
7719;SDS011;3902;49.474;8.616;2023-07-30T04:31:11;2.57;;;2.37;;
7719;SDS011;3902;49.474;8.616;2023-07-30T04:33:37;2.50;;;2.30;;
7719;SDS011;3902;49.474;8.616;2023-07-30T04:36:03;2.67;;;2.47;;
7719;SDS011;3902;49.474;8.616;2023-07-30T04:38:28;2.70;;;2.50;;
7719;SDS011;3902;49.474;8.616;2023-07-30T04:40:57;2.50;;;2.30;;
7719;SDS011;3902;49.474;8.616;2023-07-30T04:43:23;3.57;;;2.63;;
7719;SDS011;3902;49.474;8.616;2023-07-30T04:45:48;2.90;;;2.60;;
7719;SDS011;3902;49.474;8.616;2023-07-30T04:48:14;2.90;;;2.60;;
7719;SDS011;3902;49.474;8.616;2023-07-30T04:50:39;2.73;;;2.53;;
7719;SDS011;3902;49.474;8.616;2023-07-30T04:53:07;2.70;;;2.50;;
7719;SDS011;3902;49.474;8.616;2023-07-30T04:55:33;2.77;;;2.57;;
7719;SDS011;3902;49.474;8.616;2023-07-30T04:57:59;5.63;;;2.53;;
7719;SDS011;3902;49.474;8.616;2023-07-30T05:00:24;3.07;;;2.27;;
7719;SDS011;3902;49.474;8.616;2023-07-30T05:02:50;2.93;;;2.57;;
7719;SDS011;3902;49.474;8.616;2023-07-30T05:05:16;4.13;;;2.90;;
7719;SDS011;3902;49.474;8.616;2023-07-30T05:07:41;3.70;;;3.00;;
7719;SDS011;3902;49.474;8.616;2023-07-30T05:10:07;2.73;;;2.53;;
7719;SDS011;3902;49.474;8.616;2023-07-30T05:12:35;2.80;;;2.60;;
7719;SDS011;3902;49.474;8.616;2023-07-30T05:15:02;2.80;;;2.60;;
7719;SDS011;3902;49.474;8.616;2023-07-30T05:17:28;3.20;;;1.90;;
7719;SDS011;3902;49.474;8.616;2023-07-30T05:19:54;2.70;;;2.50;;
7719;SDS011;3902;49.474;8.616;2023-07-30T05:22:22;3.20;;;2.90;;
7719;SDS011;3902;49.474;8.616;2023-07-30T05:24:56;2.67;;;2.47;;
7719;SDS011;3902;49.474;8.616;2023-07-30T05:30:13;2.70;;;2.50;;
7719;SDS011;3902;49.474;8.616;2023-07-30T05:32:39;2.63;;;2.43;;
7719;SDS011;3902;49.474;8.616;2023-07-30T05:35:05;3.00;;;2.80;;
7719;SDS011;3902;49.474;8.616;2023-07-30T05:37:30;3.07;;;2.87;;
7719;SDS011;3902;49.474;8.616;2023-07-30T05:39:56;3.47;;;2.67;;
7719;SDS011;3902;49.474;8.616;2023-07-30T05:42:21;2.97;;;2.47;;
7719;SDS011;3902;49.474;8.616;2023-07-30T05:44:47;3.90;;;2.97;;
7719;SDS011;3902;49.474;8.616;2023-07-30T05:47:13;4.30;;;2.60;;
7719;SDS011;3902;49.474;8.616;2023-07-30T05:49:38;2.93;;;2.67;;
7719;SDS011;3902;49.474;8.616;2023-07-30T05:52:04;2.90;;;2.70;;
7719;SDS011;3902;49.474;8.616;2023-07-30T05:54:30;2.80;;;2.60;;
7719;SDS011;3902;49.474;8.616;2023-07-30T05:56:55;5.03;;;2.60;;
7719;SDS011;3902;49.474;8.616;2023-07-30T05:59:21;2.60;;;2.40;;
7719;SDS011;3902;49.474;8.616;2023-07-30T06:01:46;3.73;;;2.33;;
7719;SDS011;3902;49.474;8.616;2023-07-30T06:04:12;3.63;;;2.40;;
7719;SDS011;3902;49.474;8.616;2023-07-30T06:06:38;2.20;;;2.10;;
7719;SDS011;3902;49.474;8.616;2023-07-30T06:09:03;2.40;;;2.20;;
7719;SDS011;3902;49.474;8.616;2023-07-30T06:11:29;4.37;;;2.50;;
7719;SDS011;3902;49.474;8.616;2023-07-30T06:13:54;3.10;;;2.80;;
7719;SDS011;3902;49.474;8.616;2023-07-30T06:16:20;2.83;;;2.53;;
7719;SDS011;3902;49.474;8.616;2023-07-30T06:18:46;3.17;;;2.90;;
7719;SDS011;3902;49.474;8.616;2023-07-30T06:21:12;2.87;;;2.67;;
7719;SDS011;3902;49.474;8.616;2023-07-30T06:23:37;3.23;;;2.93;;
7719;SDS011;3902;49.474;8.616;2023-07-30T06:26:03;3.03;;;2.73;;
7719;SDS011;3902;49.474;8.616;2023-07-30T06:28:28;3.13;;;2.83;;
7719;SDS011;3902;49.474;8.616;2023-07-30T06:30:54;4.90;;;3.17;;
7719;SDS011;3902;49.474;8.616;2023-07-30T06:33:19;3.57;;;3.00;;
7719;SDS011;3902;49.474;8.616;2023-07-30T06:35:45;3.57;;;3.27;;
7719;SDS011;3902;49.474;8.616;2023-07-30T06:38:10;3.60;;;3.37;;
7719;SDS011;3902;49.474;8.616;2023-07-30T06:40:36;3.37;;;3.17;;
7719;SDS011;3902;49.474;8.616;2023-07-30T06:43:01;3.80;;;3.20;;
7719;SDS011;3902;49.474;8.616;2023-07-30T06:45:27;3.60;;;3.30;;
7719;SDS011;3902;49.474;8.616;2023-07-30T06:47:53;3.40;;;3.10;;
7719;SDS011;3902;49.474;8.616;2023-07-30T06:50:18;3.67;;;3.37;;
7719;SDS011;3902;49.474;8.616;2023-07-30T06:52:44;3.70;;;3.40;;
7719;SDS011;3902;49.474;8.616;2023-07-30T06:55:09;4.70;;;4.17;;
7719;SDS011;3902;49.474;8.616;2023-07-30T06:57:35;3.50;;;3.20;;
7719;SDS011;3902;49.474;8.616;2023-07-30T07:00:01;4.67;;;3.37;;
7719;SDS011;3902;49.474;8.616;2023-07-30T07:02:28;5.20;;;3.70;;
7719;SDS011;3902;49.474;8.616;2023-07-30T07:04:54;4.27;;;3.83;;
7719;SDS011;3902;49.474;8.616;2023-07-30T07:07:20;4.17;;;3.87;;
7719;SDS011;3902;49.474;8.616;2023-07-30T07:09:45;4.40;;;3.40;;
7719;SDS011;3902;49.474;8.616;2023-07-30T07:12:11;3.43;;;3.17;;
7719;SDS011;3902;49.474;8.616;2023-07-30T07:14:37;3.60;;;3.40;;
7719;SDS011;3902;49.474;8.616;2023-07-30T07:17:02;6.20;;;3.50;;
7719;SDS011;3902;49.474;8.616;2023-07-30T07:19:28;3.77;;;3.40;;
7719;SDS011;3902;49.474;8.616;2023-07-30T07:21:54;3.87;;;3.47;;
7719;SDS011;3902;49.474;8.616;2023-07-30T07:24:19;4.73;;;3.57;;
7719;SDS011;3902;49.474;8.616;2023-07-30T07:26:45;3.47;;;3.17;;
7719;SDS011;3902;49.474;8.616;2023-07-30T07:29:10;3.20;;;3.00;;
7719;SDS011;3902;49.474;8.616;2023-07-30T07:31:36;3.20;;;2.90;;
7719;SDS011;3902;49.474;8.616;2023-07-30T07:34:01;3.20;;;3.00;;
7719;SDS011;3902;49.474;8.616;2023-07-30T07:36:27;7.97;;;4.20;;
7719;SDS011;3902;49.474;8.616;2023-07-30T07:38:52;4.37;;;3.70;;
7719;SDS011;3902;49.474;8.616;2023-07-30T07:41:18;6.47;;;3.60;;
7719;SDS011;3902;49.474;8.616;2023-07-30T07:43:44;3.87;;;3.47;;
7719;SDS011;3902;49.474;8.616;2023-07-30T07:46:11;3.57;;;3.27;;
7719;SDS011;3902;49.474;8.616;2023-07-30T07:48:42;5.70;;;3.13;;
7719;SDS011;3902;49.474;8.616;2023-07-30T07:51:09;4.00;;;3.17;;
7719;SDS011;3902;49.474;8.616;2023-07-30T07:53:36;4.53;;;3.30;;
7719;SDS011;3902;49.474;8.616;2023-07-30T07:56:02;3.77;;;3.47;;
7719;SDS011;3902;49.474;8.616;2023-07-30T07:58:28;3.57;;;3.27;;
7719;SDS011;3902;49.474;8.616;2023-07-30T08:00:54;4.33;;;3.43;;
7719;SDS011;3902;49.474;8.616;2023-07-30T08:03:20;3.37;;;3.13;;
7719;SDS011;3902;49.474;8.616;2023-07-30T08:05:47;3.23;;;2.93;;
7719;SDS011;3902;49.474;8.616;2023-07-30T08:08:13;4.00;;;3.57;;
7719;SDS011;3902;49.474;8.616;2023-07-30T08:10:39;5.53;;;3.80;;
7719;SDS011;3902;49.474;8.616;2023-07-30T08:13:04;3.80;;;3.30;;
7719;SDS011;3902;49.474;8.616;2023-07-30T08:15:30;4.30;;;3.30;;
7719;SDS011;3902;49.474;8.616;2023-07-30T08:17:57;9.80;;;3.20;;
7719;SDS011;3902;49.474;8.616;2023-07-30T08:20:23;3.63;;;3.33;;
7719;SDS011;3902;49.474;8.616;2023-07-30T08:22:48;5.10;;;3.10;;
7719;SDS011;3902;49.474;8.616;2023-07-30T08:25:14;3.20;;;2.90;;
7719;SDS011;3902;49.474;8.616;2023-07-30T08:27:40;3.40;;;3.10;;
7719;SDS011;3902;49.474;8.616;2023-07-30T08:30:06;3.53;;;3.23;;
7719;SDS011;3902;49.474;8.616;2023-07-30T08:32:32;3.40;;;3.10;;
7719;SDS011;3902;49.474;8.616;2023-07-30T08:34:58;3.97;;;3.20;;
7719;SDS011;3902;49.474;8.616;2023-07-30T08:37:24;3.60;;;3.30;;
7719;SDS011;3902;49.474;8.616;2023-07-30T08:39:51;4.10;;;2.80;;
7719;SDS011;3902;49.474;8.616;2023-07-30T08:42:17;3.10;;;2.90;;
7719;SDS011;3902;49.474;8.616;2023-07-30T08:44:43;3.20;;;2.90;;
7719;SDS011;3902;49.474;8.616;2023-07-30T08:47:09;3.50;;;3.20;;
7719;SDS011;3902;49.474;8.616;2023-07-30T08:49:35;3.20;;;2.90;;
7719;SDS011;3902;49.474;8.616;2023-07-30T08:52:01;3.43;;;3.00;;
7719;SDS011;3902;49.474;8.616;2023-07-30T08:54:29;3.77;;;3.23;;
7719;SDS011;3902;49.474;8.616;2023-07-30T08:56:56;3.03;;;2.73;;
7719;SDS011;3902;49.474;8.616;2023-07-30T08:59:24;4.87;;;2.67;;
7719;SDS011;3902;49.474;8.616;2023-07-30T09:01:54;4.03;;;2.70;;
7719;SDS011;3902;49.474;8.616;2023-07-30T09:04:21;2.73;;;2.30;;
7719;SDS011;3902;49.474;8.616;2023-07-30T09:06:47;2.70;;;2.50;;
7719;SDS011;3902;49.474;8.616;2023-07-30T09:09:14;4.90;;;2.70;;
7719;SDS011;3902;49.474;8.616;2023-07-30T09:11:39;3.27;;;2.70;;
7719;SDS011;3902;49.474;8.616;2023-07-30T09:14:05;3.63;;;2.30;;
7719;SDS011;3902;49.474;8.616;2023-07-30T09:16:31;2.30;;;2.10;;
7719;SDS011;3902;49.474;8.616;2023-07-30T09:18:56;2.60;;;2.40;;
7719;SDS011;3902;49.474;8.616;2023-07-30T09:21:29;3.50;;;2.50;;
7719;SDS011;3902;49.474;8.616;2023-07-30T09:24:01;2.37;;;2.17;;
7719;SDS011;3902;49.474;8.616;2023-07-30T09:26:51;3.40;;;2.23;;
7719;SDS011;3902;49.474;8.616;2023-07-30T09:29:16;3.37;;;2.83;;
7719;SDS011;3902;49.474;8.616;2023-07-30T09:31:52;2.50;;;2.30;;
7719;SDS011;3902;49.474;8.616;2023-07-30T09:34:22;3.07;;;2.30;;
7719;SDS011;3902;49.474;8.616;2023-07-30T09:36:53;3.00;;;2.67;;
7719;SDS011;3902;49.474;8.616;2023-07-30T09:39:23;5.50;;;2.80;;
7719;SDS011;3902;49.474;8.616;2023-07-30T09:41:51;5.33;;;2.77;;
7719;SDS011;3902;49.474;8.616;2023-07-30T09:44:17;2.60;;;2.40;;
7719;SDS011;3902;49.474;8.616;2023-07-30T09:46:44;2.17;;;1.97;;
7719;SDS011;3902;49.474;8.616;2023-07-30T09:49:11;2.80;;;2.60;;
7719;SDS011;3902;49.474;8.616;2023-07-30T09:51:37;2.60;;;2.30;;
7719;SDS011;3902;49.474;8.616;2023-07-30T09:54:05;2.77;;;2.57;;
7719;SDS011;3902;49.474;8.616;2023-07-30T09:56:33;2.87;;;2.57;;
7719;SDS011;3902;49.474;8.616;2023-07-30T09:58:59;3.00;;;2.60;;
7719;SDS011;3902;49.474;8.616;2023-07-30T10:01:24;2.50;;;2.30;;
7719;SDS011;3902;49.474;8.616;2023-07-30T10:03:54;2.97;;;2.43;;
7719;SDS011;3902;49.474;8.616;2023-07-30T10:06:21;3.03;;;2.30;;
7719;SDS011;3902;49.474;8.616;2023-07-30T10:08:50;3.70;;;2.70;;
7719;SDS011;3902;49.474;8.616;2023-07-30T10:11:17;6.43;;;2.50;;
7719;SDS011;3902;49.474;8.616;2023-07-30T10:13:44;3.07;;;2.53;;
7719;SDS011;3902;49.474;8.616;2023-07-30T10:16:10;2.23;;;2.03;;
7719;SDS011;3902;49.474;8.616;2023-07-30T10:18:40;2.80;;;2.03;;
7719;SDS011;3902;49.474;8.616;2023-07-30T10:21:07;3.00;;;2.13;;
7719;SDS011;3902;49.474;8.616;2023-07-30T10:23:34;2.40;;;2.20;;
7719;SDS011;3902;49.474;8.616;2023-07-30T10:26:03;3.07;;;2.77;;
7719;SDS011;3902;49.474;8.616;2023-07-30T10:28:35;2.37;;;2.17;;
7719;SDS011;3902;49.474;8.616;2023-07-30T10:31:05;4.67;;;2.37;;
7719;SDS011;3902;49.474;8.616;2023-07-30T10:33:44;2.97;;;2.67;;
7719;SDS011;3902;49.474;8.616;2023-07-30T10:36:10;2.53;;;2.30;;
7719;SDS011;3902;49.474;8.616;2023-07-30T10:38:36;2.30;;;1.83;;
7719;SDS011;3902;49.474;8.616;2023-07-30T10:43:35;3.43;;;2.13;;
7719;SDS011;3902;49.474;8.616;2023-07-30T10:46:01;2.90;;;2.13;;
7719;SDS011;3902;49.474;8.616;2023-07-30T10:48:34;2.87;;;1.57;;
7719;SDS011;3902;49.474;8.616;2023-07-30T10:51:02;1.60;;;1.50;;
7719;SDS011;3902;49.474;8.616;2023-07-30T10:53:30;1.97;;;1.87;;
7719;SDS011;3902;49.474;8.616;2023-07-30T10:56:01;2.20;;;1.93;;
7719;SDS011;3902;49.474;8.616;2023-07-30T10:58:32;1.90;;;1.73;;
7719;SDS011;3902;49.474;8.616;2023-07-30T11:01:01;3.90;;;1.63;;
7719;SDS011;3902;49.474;8.616;2023-07-30T11:03:28;2.57;;;1.90;;
7719;SDS011;3902;49.474;8.616;2023-07-30T11:05:54;1.90;;;1.63;;
7719;SDS011;3902;49.474;8.616;2023-07-30T11:08:22;3.13;;;1.70;;
7719;SDS011;3902;49.474;8.616;2023-07-30T11:10:58;1.83;;;1.40;;
7719;SDS011;3902;49.474;8.616;2023-07-30T11:13:23;2.97;;;2.13;;
7719;SDS011;3902;49.474;8.616;2023-07-30T11:15:49;2.07;;;1.60;;
7719;SDS011;3902;49.474;8.616;2023-07-30T11:18:14;3.70;;;1.80;;
7719;SDS011;3902;49.474;8.616;2023-07-30T11:20:40;2.23;;;1.80;;
7719;SDS011;3902;49.474;8.616;2023-07-30T11:23:19;1.97;;;1.77;;
7719;SDS011;3902;49.474;8.616;2023-07-30T11:25:46;1.80;;;1.67;;
7719;SDS011;3902;49.474;8.616;2023-07-30T11:28:13;2.30;;;1.80;;
7719;SDS011;3902;49.474;8.616;2023-07-30T11:30:40;2.03;;;1.60;;
7719;SDS011;3902;49.474;8.616;2023-07-30T11:33:05;2.47;;;1.43;;
7719;SDS011;3902;49.474;8.616;2023-07-30T11:35:31;2.43;;;1.83;;
7719;SDS011;3902;49.474;8.616;2023-07-30T11:37:58;3.80;;;1.83;;
7719;SDS011;3902;49.474;8.616;2023-07-30T11:40:23;2.50;;;1.83;;
7719;SDS011;3902;49.474;8.616;2023-07-30T11:42:49;2.10;;;1.90;;
7719;SDS011;3902;49.474;8.616;2023-07-30T11:45:18;4.70;;;2.07;;
7719;SDS011;3902;49.474;8.616;2023-07-30T11:47:45;2.60;;;1.80;;
7719;SDS011;3902;49.474;8.616;2023-07-30T11:50:11;2.60;;;1.90;;
7719;SDS011;3902;49.474;8.616;2023-07-30T11:52:50;3.70;;;1.77;;
7719;SDS011;3902;49.474;8.616;2023-07-30T11:55:16;3.67;;;2.23;;
7719;SDS011;3902;49.474;8.616;2023-07-30T11:57:42;2.40;;;2.00;;
7719;SDS011;3902;49.474;8.616;2023-07-30T12:00:08;3.97;;;2.20;;
7719;SDS011;3902;49.474;8.616;2023-07-30T12:02:34;2.60;;;1.63;;
7719;SDS011;3902;49.474;8.616;2023-07-30T12:05:00;1.93;;;1.73;;
7719;SDS011;3902;49.474;8.616;2023-07-30T12:07:26;3.70;;;2.27;;
7719;SDS011;3902;49.474;8.616;2023-07-30T12:09:51;3.93;;;2.00;;
7719;SDS011;3902;49.474;8.616;2023-07-30T12:12:18;3.60;;;1.67;;
7719;SDS011;3902;49.474;8.616;2023-07-30T12:14:44;4.40;;;2.07;;
7719;SDS011;3902;49.474;8.616;2023-07-30T12:17:19;3.90;;;1.93;;
7719;SDS011;3902;49.474;8.616;2023-07-30T12:19:46;3.80;;;2.10;;
7719;SDS011;3902;49.474;8.616;2023-07-30T12:22:11;2.93;;;2.13;;
7719;SDS011;3902;49.474;8.616;2023-07-30T12:24:37;3.07;;;2.00;;
7719;SDS011;3902;49.474;8.616;2023-07-30T12:27:03;4.63;;;1.97;;
7719;SDS011;3902;49.474;8.616;2023-07-30T12:29:28;2.53;;;1.97;;
7719;SDS011;3902;49.474;8.616;2023-07-30T12:31:54;4.97;;;2.20;;
7719;SDS011;3902;49.474;8.616;2023-07-30T12:34:21;3.90;;;2.27;;
7719;SDS011;3902;49.474;8.616;2023-07-30T12:36:48;5.13;;;2.20;;
7719;SDS011;3902;49.474;8.616;2023-07-30T12:39:13;2.50;;;1.80;;
7719;SDS011;3902;49.474;8.616;2023-07-30T12:41:39;3.00;;;1.80;;
7719;SDS011;3902;49.474;8.616;2023-07-30T12:44:05;2.87;;;2.03;;
7719;SDS011;3902;49.474;8.616;2023-07-30T12:46:31;3.10;;;1.80;;
7719;SDS011;3902;49.474;8.616;2023-07-30T12:48:57;2.13;;;1.93;;
7719;SDS011;3902;49.474;8.616;2023-07-30T12:51:29;4.13;;;2.27;;
7719;SDS011;3902;49.474;8.616;2023-07-30T12:53:55;3.00;;;1.93;;
7719;SDS011;3902;49.474;8.616;2023-07-30T12:56:20;2.40;;;2.00;;
7719;SDS011;3902;49.474;8.616;2023-07-30T12:58:46;3.27;;;2.20;;
7719;SDS011;3902;49.474;8.616;2023-07-30T13:01:11;9.30;;;2.83;;
7719;SDS011;3902;49.474;8.616;2023-07-30T13:03:37;6.33;;;2.20;;
7719;SDS011;3902;49.474;8.616;2023-07-30T13:06:04;5.47;;;2.60;;
7719;SDS011;3902;49.474;8.616;2023-07-30T13:08:29;4.10;;;2.30;;
7719;SDS011;3902;49.474;8.616;2023-07-30T13:10:55;3.87;;;2.03;;
7719;SDS011;3902;49.474;8.616;2023-07-30T13:13:21;4.80;;;2.77;;
7719;SDS011;3902;49.474;8.616;2023-07-30T13:15:46;3.13;;;2.33;;
7719;SDS011;3902;49.474;8.616;2023-07-30T13:18:12;7.40;;;3.00;;
7719;SDS011;3902;49.474;8.616;2023-07-30T13:20:38;3.10;;;2.00;;
7719;SDS011;3902;49.474;8.616;2023-07-30T13:23:03;6.00;;;2.50;;
7719;SDS011;3902;49.474;8.616;2023-07-30T13:25:29;8.43;;;2.33;;
7719;SDS011;3902;49.474;8.616;2023-07-30T13:27:54;3.67;;;2.40;;
7719;SDS011;3902;49.474;8.616;2023-07-30T13:30:20;5.10;;;1.90;;
7719;SDS011;3902;49.474;8.616;2023-07-30T13:32:46;3.57;;;2.40;;
7719;SDS011;3902;49.474;8.616;2023-07-30T13:35:11;3.00;;;1.90;;
7719;SDS011;3902;49.474;8.616;2023-07-30T13:37:37;2.77;;;1.90;;
7719;SDS011;3902;49.474;8.616;2023-07-30T13:40:03;4.63;;;2.30;;
7719;SDS011;3902;49.474;8.616;2023-07-30T13:42:29;4.70;;;2.20;;
7719;SDS011;3902;49.474;8.616;2023-07-30T13:44:54;4.23;;;2.17;;
7719;SDS011;3902;49.474;8.616;2023-07-30T13:47:20;5.43;;;2.23;;
7719;SDS011;3902;49.474;8.616;2023-07-30T13:49:45;4.00;;;2.17;;
7719;SDS011;3902;49.474;8.616;2023-07-30T13:52:12;3.93;;;2.23;;
7719;SDS011;3902;49.474;8.616;2023-07-30T13:54:38;4.10;;;2.30;;
7719;SDS011;3902;49.474;8.616;2023-07-30T13:57:04;3.40;;;2.30;;
7719;SDS011;3902;49.474;8.616;2023-07-30T13:59:30;4.07;;;2.90;;
7719;SDS011;3902;49.474;8.616;2023-07-30T14:01:56;3.90;;;2.30;;
7719;SDS011;3902;49.474;8.616;2023-07-30T14:04:21;6.00;;;3.03;;
7719;SDS011;3902;49.474;8.616;2023-07-30T14:06:47;3.93;;;2.63;;
7719;SDS011;3902;49.474;8.616;2023-07-30T14:09:12;3.97;;;3.00;;
7719;SDS011;3902;49.474;8.616;2023-07-30T14:11:38;4.27;;;2.37;;
7719;SDS011;3902;49.474;8.616;2023-07-30T14:14:06;3.63;;;1.90;;
7719;SDS011;3902;49.474;8.616;2023-07-30T14:16:31;3.50;;;1.97;;
7719;SDS011;3902;49.474;8.616;2023-07-30T14:18:57;3.50;;;2.30;;
7719;SDS011;3902;49.474;8.616;2023-07-30T14:21:23;2.70;;;2.03;;
7719;SDS011;3902;49.474;8.616;2023-07-30T14:23:48;3.00;;;2.20;;
7719;SDS011;3902;49.474;8.616;2023-07-30T14:26:14;4.23;;;2.10;;
7719;SDS011;3902;49.474;8.616;2023-07-30T14:28:40;5.40;;;2.23;;
7719;SDS011;3902;49.474;8.616;2023-07-30T14:31:05;3.83;;;2.00;;
7719;SDS011;3902;49.474;8.616;2023-07-30T14:33:30;3.87;;;2.23;;
7719;SDS011;3902;49.474;8.616;2023-07-30T14:35:56;2.77;;;2.00;;
7719;SDS011;3902;49.474;8.616;2023-07-30T14:38:22;3.43;;;2.07;;
7719;SDS011;3902;49.474;8.616;2023-07-30T14:40:47;5.00;;;2.10;;
7719;SDS011;3902;49.474;8.616;2023-07-30T14:43:13;3.07;;;1.80;;
7719;SDS011;3902;49.474;8.616;2023-07-30T14:45:38;2.17;;;1.97;;
7719;SDS011;3902;49.474;8.616;2023-07-30T14:48:04;4.97;;;2.03;;
7719;SDS011;3902;49.474;8.616;2023-07-30T14:50:29;2.63;;;2.37;;
7719;SDS011;3902;49.474;8.616;2023-07-30T14:52:55;5.33;;;2.23;;
7719;SDS011;3902;49.474;8.616;2023-07-30T14:55:20;3.63;;;2.10;;
7719;SDS011;3902;49.474;8.616;2023-07-30T14:57:46;4.90;;;2.30;;
7719;SDS011;3902;49.474;8.616;2023-07-30T15:00:11;4.67;;;2.03;;
7719;SDS011;3902;49.474;8.616;2023-07-30T15:02:39;8.50;;;2.40;;
7719;SDS011;3902;49.474;8.616;2023-07-30T15:05:05;5.03;;;2.37;;
7719;SDS011;3902;49.474;8.616;2023-07-30T15:07:31;2.90;;;2.27;;
7719;SDS011;3902;49.474;8.616;2023-07-30T15:09:57;3.40;;;1.70;;
7719;SDS011;3902;49.474;8.616;2023-07-30T15:12:22;2.87;;;1.80;;
7719;SDS011;3902;49.474;8.616;2023-07-30T15:14:48;4.13;;;1.87;;